Time;durP1;ratioP1;P1;durP2;ratioP2;P2;SDS_P1;SDS_P2;PMS_P1;PMS_P2;Temp;Humidity;BMP_temperature;BMP_pressure;BME280_temperature;BME280_humidity;BME280_pressure;Samples;Min_cycle;Max_cycle;Signal;HPM_P1;HPM_P2
2021/01/05 00:00:42;;;;;;;20.35;13.02;;;2.80;99.90;;;;;;5020003;28;20420;-47
2021/01/05 00:03:07;;;;;;;23.38;14.38;;;2.90;99.90;;;;;;5007640;28;20104;-46
2021/01/05 00:05:33;;;;;;;19.00;12.35;;;2.90;99.90;;;;;;5012880;28;20524;-49
2021/01/05 00:07:58;;;;;;;22.20;13.10;;;2.80;99.90;;;;;;5025617;28;20059;-49
2021/01/05 00:10:24;;;;;;;29.85;14.35;;;2.90;99.90;;;;;;5007661;28;20066;-48
2021/01/05 00:12:49;;;;;;;21.60;13.82;;;3.00;99.90;;;;;;5007835;28;20034;-47
2021/01/05 00:15:16;;;;;;;22.70;13.10;;;2.90;99.90;;;;;;5026998;28;20021;-45
2021/01/05 00:17:42;;;;;;;19.05;12.15;;;2.90;99.90;;;;;;5027721;28;20017;-50
2021/01/05 00:20:11;;;;;;;22.42;13.05;;;2.90;99.90;;;;;;5009606;28;20030;-45
2021/01/05 00:22:36;;;;;;;19.58;13.30;;;2.80;99.90;;;;;;5006038;28;20132;-48
2021/01/05 00:25:05;;;;;;;20.92;12.85;;;2.90;99.90;;;;;;5024131;28;20112;-46
2021/01/05 00:27:31;;;;;;;23.15;14.13;;;2.90;99.90;;;;;;5027747;28;20028;-48
2021/01/05 00:29:56;;;;;;;21.40;13.32;;;2.90;99.90;;;;;;5012123;28;20030;-46
2021/01/05 00:32:24;;;;;;;23.15;13.90;;;2.80;99.90;;;;;;5007578;28;20045;-51
2021/01/05 00:34:50;;;;;;;21.58;12.38;;;2.80;99.90;;;;;;5008451;28;20100;-48
2021/01/05 00:37:18;;;;;;;21.02;12.65;;;2.80;99.90;;;;;;5007669;28;20025;-48
2021/01/05 00:39:43;;;;;;;25.88;14.23;;;2.80;99.90;;;;;;5019173;28;20112;-47
2021/01/05 00:42:09;;;;;;;23.05;12.73;;;2.80;99.90;;;;;;5027504;28;20124;-49
2021/01/05 00:44:35;;;;;;;20.67;13.27;;;2.80;99.90;;;;;;5016593;28;20459;-53
2021/01/05 00:47:01;;;;;;;19.55;12.05;;;2.80;99.90;;;;;;5007386;28;20109;-50
2021/01/05 00:49:27;;;;;;;20.13;11.90;;;2.70;99.90;;;;;;5019043;28;20061;-50
2021/01/05 00:51:53;;;;;;;21.92;13.10;;;2.80;99.90;;;;;;5030577;28;20111;-43
2021/01/05 00:54:18;;;;;;;19.55;12.18;;;2.80;99.90;;;;;;5021044;28;20092;-48
2021/01/05 00:57:04;;;;;;;22.88;13.15;;;2.80;99.90;;;;;;5010714;28;20037;-51
2021/01/05 00:59:30;;;;;;;19.77;12.32;;;2.90;99.90;;;;;;5024767;28;20037;-47
2021/01/05 01:01:56;;;;;;;20.15;12.32;;;2.90;99.90;;;;;;5030577;28;20059;-49
2021/01/05 01:04:22;;;;;;;25.65;14.07;;;2.80;99.90;;;;;;5028438;28;20064;-51
2021/01/05 01:06:48;;;;;;;25.77;12.98;;;2.80;99.90;;;;;;5030930;28;20053;-55
2021/01/05 01:09:13;;;;;;;20.77;12.52;;;2.80;99.90;;;;;;5012750;28;20485;-53
2021/01/05 01:11:54;;;;;;;24.05;13.07;;;2.70;99.90;;;;;;5012579;28;20137;-50
2021/01/05 01:14:19;;;;;;;17.98;11.73;;;2.80;99.90;;;;;;5028170;28;20462;-52
2021/01/05 01:16:45;;;;;;;23.77;13.65;;;2.80;99.90;;;;;;5030352;28;20017;-52
2021/01/05 01:19:10;;;;;;;24.52;13.75;;;2.80;99.90;;;;;;5014352;28;20056;-49
2021/01/05 01:21:44;;;;;;;24.38;12.57;;;2.80;99.90;;;;;;5010761;28;20045;-52
2021/01/05 01:24:10;;;;;;;22.25;12.40;;;2.80;99.90;;;;;;5025649;28;20029;-52
2021/01/05 01:26:35;;;;;;;20.33;12.70;;;2.80;99.90;;;;;;5030267;28;20033;-52
2021/01/05 01:29:01;;;;;;;23.38;12.75;;;2.80;99.90;;;;;;5015318;28;20033;-54
2021/01/05 01:31:28;;;;;;;20.90;12.07;;;2.80;99.90;;;;;;5012599;28;20105;-55
2021/01/05 01:33:53;;;;;;;24.67;12.90;;;2.70;99.90;;;;;;5012511;28;20485;-51
2021/01/05 01:36:19;;;;;;;21.65;12.48;;;2.70;99.90;;;;;;5013366;28;20045;-52
2021/01/05 01:38:44;;;;;;;19.67;12.07;;;2.70;99.90;;;;;;5013342;28;20370;-52
2021/01/05 01:41:10;;;;;;;19.40;11.55;;;2.70;99.90;;;;;;5012994;28;20105;-49
2021/01/05 01:43:35;;;;;;;19.58;12.43;;;2.80;99.90;;;;;;5012897;28;20040;-52
2021/01/05 01:46:01;;;;;;;19.20;11.52;;;2.80;99.90;;;;;;5013036;28;20029;-50
2021/01/05 01:48:26;;;;;;;21.75;12.65;;;2.80;99.90;;;;;;5012772;28;20024;-53
2021/01/05 01:50:54;;;;;;;22.40;13.15;;;2.70;99.90;;;;;;5012690;28;20036;-54
2021/01/05 01:53:22;;;;;;;22.45;12.63;;;2.70;99.90;;;;;;5012413;28;20029;-53
2021/01/05 01:56:06;;;;;;;24.25;13.32;;;2.80;99.90;;;;;;5012400;28;20088;-55
2021/01/05 01:58:40;;;;;;;21.10;12.02;;;2.80;99.90;;;;;;5011471;28;20089;-52
2021/01/05 02:01:30;;;;;;;19.75;12.45;;;2.80;99.90;;;;;;5011807;28;20036;-56
2021/01/05 02:04:14;;;;;;;22.33;13.38;;;2.80;99.90;;;;;;5012329;28;20041;-55
2021/01/05 02:07:06;;;;;;;19.25;12.30;;;2.80;99.90;;;;;;5013107;28;20477;-55
2021/01/05 02:10:05;;;;;;;23.42;13.50;;;2.80;99.90;;;;;;5011304;28;20084;-52
2021/01/05 02:12:42;;;;;;;23.77;13.45;;;2.90;99.90;;;;;;5010851;28;20507;-51
2021/01/05 02:15:33;;;;;;;25.48;14.10;;;2.90;99.90;;;;;;5012212;28;20083;-51
2021/01/05 02:18:20;;;;;;;23.08;13.70;;;2.90;99.90;;;;;;5012227;28;20129;-53
2021/01/05 02:20:51;;;;;;;23.80;13.23;;;2.90;99.90;;;;;;5011981;28;20057;-51
2021/01/05 02:23:47;;;;;;;22.88;13.00;;;2.90;99.90;;;;;;5011832;28;20497;-51
2021/01/05 02:26:36;;;;;;;25.30;12.95;;;2.90;99.90;;;;;;5012044;28;20029;-55
2021/01/05 02:29:06;;;;;;;22.98;12.80;;;2.90;99.90;;;;;;5010880;28;20022;-52
2021/01/05 02:31:34;;;;;;;21.23;12.45;;;3.00;99.90;;;;;;5012037;28;20037;-49
2021/01/05 02:34:18;;;;;;;21.17;13.10;;;3.00;99.90;;;;;;5012180;28;20057;-49
2021/01/05 02:37:09;;;;;;;21.30;12.60;;;3.00;99.90;;;;;;5013175;28;20032;-54
2021/01/05 02:40:13;;;;;;;19.90;12.77;;;3.00;99.90;;;;;;5011915;28;20033;-50
2021/01/05 02:43:08;;;;;;;21.13;12.88;;;3.10;99.90;;;;;;5011630;28;20017;-51
2021/01/05 02:45:37;;;;;;;23.75;12.38;;;3.00;99.90;;;;;;5011977;28;20497;-54
2021/01/05 02:48:24;;;;;;;19.65;11.38;;;3.00;99.90;;;;;;5011741;28;20420;-54
2021/01/05 02:51:11;;;;;;;21.02;12.73;;;3.00;99.90;;;;;;5011635;28;20022;-51
2021/01/05 02:54:27;;;;;;;21.98;12.68;;;2.90;99.90;;;;;;5011549;28;20032;-55
2021/01/05 02:56:55;;;;;;;23.10;13.75;;;2.90;99.90;;;;;;4988896;28;20086;-50
2021/01/05 02:59:42;;;;;;;25.58;13.60;;;2.90;99.90;;;;;;5010464;28;20171;-52
2021/01/05 03:02:45;;;;;;;23.38;14.68;;;2.90;99.90;;;;;;5011660;28;20029;-53
2021/01/05 03:05:11;;;;;;;25.15;13.15;;;2.90;99.90;;;;;;5011584;28;20029;-50
2021/01/05 03:07:37;;;;;;;19.98;12.85;;;2.90;99.90;;;;;;5011188;28;20109;-50
2021/01/05 03:10:32;;;;;;;22.00;12.60;;;2.80;99.90;;;;;;5011346;28;20030;-51
2021/01/05 03:13:16;;;;;;;24.30;13.10;;;2.80;99.90;;;;;;5010652;28;20578;-50
2021/01/05 03:16:03;;;;;;;18.52;11.80;;;3.00;99.90;;;;;;5011417;28;20030;-52
2021/01/05 03:18:53;;;;;;;23.00;11.98;;;3.00;99.90;;;;;;5011678;28;20372;-51
2021/01/05 03:21:26;;;;;;;21.38;12.23;;;3.00;99.90;;;;;;5011334;28;20021;-54
2021/01/05 03:23:54;;;;;;;18.23;11.90;;;3.00;99.90;;;;;;5011110;28;20056;-55
2021/01/05 03:26:25;;;;;;;22.40;12.52;;;2.90;99.90;;;;;;5011368;28;20451;-50
2021/01/05 03:28:51;;;;;;;21.67;11.57;;;3.00;99.90;;;;;;5011286;28;20033;-53
2021/01/05 03:31:23;;;;;;;21.95;12.73;;;3.00;99.90;;;;;;5011115;28;20033;-52
2021/01/05 03:33:54;;;;;;;21.02;12.45;;;2.90;99.90;;;;;;5010785;28;20080;-54
2021/01/05 03:36:19;;;;;;;20.48;12.40;;;2.80;99.90;;;;;;5011069;28;20497;-49
2021/01/05 03:38:45;;;;;;;25.27;13.55;;;2.80;99.90;;;;;;5010971;28;20088;-55
2021/01/05 03:41:11;;;;;;;20.38;11.95;;;2.80;99.90;;;;;;5010849;28;20060;-54
2021/01/05 03:43:37;;;;;;;21.70;12.48;;;2.90;99.90;;;;;;5010748;28;20460;-51
2021/01/05 03:46:02;;;;;;;22.25;12.13;;;2.80;99.90;;;;;;5010972;28;20030;-50
2021/01/05 03:48:28;;;;;;;19.27;12.65;;;2.80;99.90;;;;;;5010972;28;20026;-49
2021/01/05 03:50:53;;;;;;;23.17;12.75;;;2.90;99.90;;;;;;5010836;28;20024;-51
2021/01/05 03:53:19;;;;;;;20.70;11.13;;;2.90;99.90;;;;;;5010513;28;20022;-53
2021/01/05 03:55:44;;;;;;;19.20;12.18;;;2.80;99.90;;;;;;5010729;28;20417;-53
2021/01/05 03:58:10;;;;;;;18.80;11.30;;;2.80;99.90;;;;;;5011142;28;20050;-51
2021/01/05 04:00:36;;;;;;;17.90;11.68;;;2.90;99.90;;;;;;5010655;28;20113;-54
2021/01/05 04:03:02;;;;;;;19.25;11.13;;;2.80;99.90;;;;;;5010525;28;20022;-54
2021/01/05 04:05:28;;;;;;;22.95;12.13;;;2.90;99.90;;;;;;5010617;28;20106;-50
2021/01/05 04:07:54;;;;;;;19.48;11.45;;;3.00;99.90;;;;;;5010795;28;20105;-52
2021/01/05 04:10:20;;;;;;;21.55;12.48;;;3.00;99.90;;;;;;5010622;28;20087;-52
2021/01/05 04:12:46;;;;;;;21.17;11.15;;;3.10;99.90;;;;;;5009180;28;20026;-52
2021/01/05 04:15:21;;;;;;;18.30;11.70;;;3.00;99.90;;;;;;5010570;28;20095;-51
2021/01/05 04:17:46;;;;;;;17.10;11.18;;;3.10;99.90;;;;;;5010737;28;20660;-52
2021/01/05 04:20:13;;;;;;;17.85;11.48;;;3.00;99.90;;;;;;5010693;28;20124;-50
2021/01/05 04:22:39;;;;;;;20.25;11.48;;;3.00;99.90;;;;;;5011387;28;20324;-50
2021/01/05 04:25:05;;;;;;;17.85;11.18;;;2.90;99.90;;;;;;5014505;28;20064;-49
2021/01/05 04:27:31;;;;;;;19.48;10.88;;;2.90;99.90;;;;;;5014476;28;20037;-52
2021/01/05 04:29:56;;;;;;;18.38;10.85;;;2.90;99.90;;;;;;5014748;28;20022;-52
2021/01/05 04:32:22;;;;;;;17.05;11.00;;;3.00;99.90;;;;;;5014415;28;20048;-52
2021/01/05 04:34:47;;;;;;;14.60;10.73;;;2.80;99.90;;;;;;5013765;28;21064;-50
2021/01/05 04:37:13;;;;;;;16.63;10.25;;;2.80;99.90;;;;;;5014502;28;20026;-51
2021/01/05 04:39:38;;;;;;;17.50;10.63;;;2.80;99.90;;;;;;5014130;28;20405;-52
2021/01/05 04:42:21;;;;;;;16.58;10.77;;;2.80;99.90;;;;;;5012811;28;20058;-54
2021/01/05 04:45:01;;;;;;;15.63;10.02;;;2.80;99.90;;;;;;5013770;28;20030;-50
2021/01/05 04:47:57;;;;;;;15.77;9.80;;;2.90;99.90;;;;;;5014148;28;20022;-53
2021/01/05 04:50:38;;;;;;;16.58;10.30;;;2.90;99.90;;;;;;5013935;28;20030;-51
2021/01/05 04:53:14;;;;;;;16.25;10.55;;;2.90;99.90;;;;;;5013750;28;20133;-52
2021/01/05 04:56:00;;;;;;;16.98;9.63;;;2.90;99.90;;;;;;5013782;28;20033;-48
2021/01/05 04:58:36;;;;;;;15.27;9.82;;;2.90;99.90;;;;;;5013907;28;20025;-53
2021/01/05 05:01:03;;;;;;;15.98;10.63;;;2.90;99.90;;;;;;5012194;28;20503;-50
2021/01/05 05:03:54;;;;;;;18.85;9.38;;;2.80;99.90;;;;;;5013516;28;20451;-51
2021/01/05 05:06:35;;;;;;;15.50;9.70;;;2.80;99.90;;;;;;5013799;28;20062;-48
2021/01/05 05:09:31;;;;;;;17.70;10.30;;;2.80;99.90;;;;;;5013577;28;20047;-50
2021/01/05 05:12:21;;;;;;;14.75;10.02;;;2.80;99.90;;;;;;5013573;28;20025;-53
2021/01/05 05:15:22;;;;;;;16.88;10.52;;;2.80;99.90;;;;;;5013278;28;20033;-50
2021/01/05 05:17:55;;;;;;;14.40;10.15;;;2.90;99.90;;;;;;5013744;28;20022;-49
2021/01/05 05:20:33;;;;;;;14.93;10.73;;;2.90;99.90;;;;;;5012057;28;20026;-53
2021/01/05 05:23:26;;;;;;;14.23;9.90;;;2.90;99.90;;;;;;5011835;28;20026;-53
2021/01/05 05:26:13;;;;;;;16.40;10.68;;;3.00;99.90;;;;;;5013336;28;20378;-52
2021/01/05 05:28:48;;;;;;;19.85;11.80;;;3.00;99.90;;;;;;5013162;28;20033;-49
2021/01/05 05:31:20;;;;;;;22.77;11.45;;;3.00;99.90;;;;;;5011913;28;20030;-52
2021/01/05 05:33:48;;;;;;;17.27;11.15;;;3.00;99.90;;;;;;5011900;28;20041;-49
2021/01/05 05:36:36;;;;;;;14.63;9.98;;;2.90;99.90;;;;;;5012789;28;20068;-51
2021/01/05 05:39:35;;;;;;;20.23;11.93;;;3.00;99.90;;;;;;5013207;28;20022;-48
2021/01/05 05:42:22;;;;;;;18.75;11.65;;;2.90;99.90;;;;;;5011831;28;20029;-51
2021/01/05 05:45:07;;;;;;;21.08;11.40;;;2.90;99.90;;;;;;5012823;28;20449;-51
2021/01/05 05:48:01;;;;;;;17.15;10.70;;;2.90;99.90;;;;;;5012789;28;20057;-49
2021/01/05 05:50:57;;;;;;;21.25;11.52;;;2.90;99.90;;;;;;5008350;28;20477;-50
2021/01/05 05:53:26;;;;;;;18.33;11.15;;;2.90;99.90;;;;;;5012624;28;20037;-51
2021/01/05 05:56:06;;;;;;;21.23;12.85;;;2.80;99.90;;;;;;5012730;28;20030;-55
2021/01/05 05:58:36;;;;;;;18.50;12.18;;;2.80;99.90;;;;;;5012726;28;20025;-51
2021/01/05 06:01:08;;;;;;;16.85;11.10;;;2.80;99.90;;;;;;5012494;28;20030;-51
2021/01/05 06:03:33;;;;;;;20.30;12.40;;;2.80;99.90;;;;;;5012348;28;20493;-52
2021/01/05 06:05:59;;;;;;;18.98;11.45;;;2.90;99.90;;;;;;5012666;28;20120;-54
2021/01/05 06:08:24;;;;;;;17.90;11.35;;;2.90;99.90;;;;;;5011037;28;20048;-53
2021/01/05 06:10:51;;;;;;;18.73;11.55;;;2.90;99.90;;;;;;5012643;28;20080;-52
2021/01/05 06:13:17;;;;;;;22.02;11.68;;;2.90;99.90;;;;;;5012460;28;20539;-49
2021/01/05 06:15:43;;;;;;;21.65;12.05;;;2.90;99.90;;;;;;5012463;28;20338;-51
2021/01/05 06:18:12;;;;;;;25.83;14.02;;;3.00;99.90;;;;;;5012517;28;20018;-48
2021/01/05 06:20:37;;;;;;;21.92;12.98;;;2.90;99.90;;;;;;5012282;28;20401;-53
2021/01/05 06:23:04;;;;;;;21.70;12.65;;;2.90;99.90;;;;;;5012019;28;20026;-48
2021/01/05 06:25:30;;;;;;;22.08;12.15;;;2.90;99.90;;;;;;5012280;28;20088;-52
2021/01/05 06:27:55;;;;;;;24.02;14.00;;;2.90;99.90;;;;;;5012148;28;20496;-52
2021/01/05 06:30:22;;;;;;;23.08;13.18;;;2.90;99.90;;;;;;5012434;28;20428;-51
2021/01/05 06:32:48;;;;;;;21.63;12.85;;;2.90;99.90;;;;;;5012020;28;20034;-53
2021/01/05 06:35:15;;;;;;;22.00;13.32;;;2.90;99.90;;;;;;5011379;28;20097;-49
2021/01/05 06:37:41;;;;;;;27.55;13.52;;;2.90;99.90;;;;;;5011820;28;20026;-54
2021/01/05 06:40:08;;;;;;;22.95;13.93;;;2.80;99.90;;;;;;5011944;28;20116;-52
2021/01/05 06:42:34;;;;;;;22.58;13.65;;;2.80;99.90;;;;;;5010553;28;20374;-48
2021/01/05 06:44:59;;;;;;;24.98;14.07;;;2.90;99.90;;;;;;5011890;28;20045;-54
2021/01/05 06:47:25;;;;;;;26.23;15.30;;;2.90;99.90;;;;;;5010492;28;20061;-50
2021/01/05 06:49:50;;;;;;;24.85;15.40;;;2.90;99.90;;;;;;5011575;28;20560;-53
2021/01/05 06:52:16;;;;;;;22.20;15.27;;;2.80;99.90;;;;;;5011674;28;20052;-51
2021/01/05 06:54:41;;;;;;;26.20;14.50;;;2.80;99.90;;;;;;5010035;28;20028;-52
2021/01/05 06:57:07;;;;;;;23.40;13.98;;;2.70;99.90;;;;;;5010317;28;20113;-51
2021/01/05 06:59:33;;;;;;;24.45;14.05;;;2.70;99.90;;;;;;5011620;28;20374;-50
2021/01/05 07:02:02;;;;;;;27.77;16.00;;;2.70;99.90;;;;;;5011578;28;20025;-50
2021/01/05 07:04:28;;;;;;;28.40;15.30;;;2.80;99.90;;;;;;5011166;28;20029;-53
2021/01/05 07:06:54;;;;;;;29.23;15.80;;;2.80;99.90;;;;;;5011442;28;20022;-54
2021/01/05 07:09:21;;;;;;;28.48;15.60;;;2.80;99.90;;;;;;5011308;28;20072;-52
2021/01/05 07:11:47;;;;;;;28.95;15.27;;;2.90;99.90;;;;;;5031512;23;21201;-56
2021/01/05 07:14:14;;;;;;;29.45;16.17;;;3.00;99.90;;;;;;5030616;28;20060;-53
2021/01/05 07:16:40;;;;;;;27.65;15.35;;;3.00;99.90;;;;;;5031381;28;20040;-59
2021/01/05 07:19:05;;;;;;;25.88;15.63;;;2.90;99.90;;;;;;5029523;28;20022;-55
2021/01/05 07:21:31;;;;;;;30.77;16.17;;;2.90;99.90;;;;;;5030940;28;20052;-52
2021/01/05 07:23:56;;;;;;;27.90;16.90;;;2.90;99.90;;;;;;5030736;28;20484;-58
2021/01/05 07:26:22;;;;;;;30.02;15.90;;;2.80;99.90;;;;;;5031280;28;20373;-59
2021/01/05 07:28:47;;;;;;;28.80;15.88;;;2.80;99.90;;;;;;5030034;28;20281;-57
2021/01/05 07:31:13;;;;;;;28.88;15.60;;;2.80;99.90;;;;;;5032433;28;20452;-56
2021/01/05 07:33:39;;;;;;;28.58;15.85;;;2.80;99.90;;;;;;5031056;28;20059;-56
2021/01/05 07:36:09;;;;;;;31.75;16.92;;;2.80;99.90;;;;;;5032039;28;20025;-55
2021/01/05 07:38:34;;;;;;;30.23;15.88;;;2.80;99.90;;;;;;5030848;28;20481;-58
2021/01/05 07:41:00;;;;;;;26.77;15.05;;;2.80;99.90;;;;;;5030754;28;20053;-56
2021/01/05 07:43:26;;;;;;;29.02;16.05;;;2.80;99.90;;;;;;5030225;28;20116;-59
2021/01/05 07:45:52;;;;;;;26.95;15.07;;;2.80;99.90;;;;;;5029794;28;20199;-54
2021/01/05 07:48:17;;;;;;;25.30;15.13;;;2.80;99.90;;;;;;5030638;28;20033;-58
2021/01/05 07:50:43;;;;;;;26.80;14.48;;;2.80;99.90;;;;;;5031262;28;20033;-58
2021/01/05 07:53:08;;;;;;;26.85;16.23;;;2.80;99.90;;;;;;5030527;28;20033;-57
2021/01/05 07:55:34;;;;;;;31.52;17.15;;;2.80;99.90;;;;;;5030845;28;20545;-57
2021/01/05 07:58:00;;;;;;;29.23;16.92;;;2.80;99.90;;;;;;5030069;28;20026;-57
2021/01/05 08:00:27;;;;;;;31.88;16.52;;;2.80;99.90;;;;;;5031379;28;20399;-54
2021/01/05 08:02:54;;;;;;;29.65;16.48;;;2.80;99.90;;;;;;5030340;28;20075;-57
2021/01/05 08:05:22;;;;;;;32.92;16.08;;;2.80;99.90;;;;;;5031017;28;20029;-53
2021/01/05 08:07:48;;;;;;;33.08;17.77;;;2.80;99.90;;;;;;5030279;28;20029;-52
2021/01/05 08:10:21;;;;;;;29.50;16.48;;;2.80;99.90;;;;;;5030478;28;20040;-53
2021/01/05 08:12:48;;;;;;;29.33;16.60;;;2.80;99.90;;;;;;5029521;28;20508;-55
2021/01/05 08:15:16;;;;;;;31.17;17.98;;;2.80;99.90;;;;;;5030422;28;20124;-56
2021/01/05 08:17:41;;;;;;;32.63;17.15;;;2.80;99.90;;;;;;5030460;28;20025;-53
2021/01/05 08:20:07;;;;;;;28.50;17.38;;;2.80;99.90;;;;;;5030893;28;20037;-56
2021/01/05 08:22:33;;;;;;;36.30;18.65;;;2.80;99.90;;;;;;5030657;28;20025;-56
2021/01/05 08:24:59;;;;;;;30.10;16.63;;;2.70;99.90;;;;;;5030822;28;20028;-57
2021/01/05 08:27:24;;;;;;;29.45;17.02;;;2.60;99.90;;;;;;5031187;28;20076;-55
2021/01/05 08:29:50;;;;;;;35.55;17.40;;;2.60;99.90;;;;;;5030116;28;20026;-56
2021/01/05 08:32:15;;;;;;;30.67;17.98;;;2.70;99.90;;;;;;5030123;28;20037;-55
2021/01/05 08:34:42;;;;;;;32.45;18.58;;;2.70;99.90;;;;;;5027408;28;20036;-53
2021/01/05 08:37:08;;;;;;;34.03;19.40;;;2.70;99.90;;;;;;5030062;28;20013;-54
2021/01/05 08:39:33;;;;;;;31.13;18.23;;;2.70;99.90;;;;;;5028864;28;20033;-55
2021/01/05 08:41:59;;;;;;;32.30;18.50;;;2.70;99.90;;;;;;5029966;28;20471;-54
2021/01/05 08:44:25;;;;;;;35.70;18.08;;;2.70;99.90;;;;;;5027983;28;20071;-54
2021/01/05 08:46:59;;;;;;;31.48;18.35;;;2.60;99.90;;;;;;5029894;28;20109;-53
2021/01/05 08:49:24;;;;;;;34.58;19.45;;;2.60;99.90;;;;;;5028789;28;20496;-53
2021/01/05 08:51:52;;;;;;;34.92;18.85;;;2.70;99.90;;;;;;5029789;28;20041;-59
2021/01/05 08:54:17;;;;;;;34.38;18.33;;;2.70;99.90;;;;;;5029173;28;20018;-52
2021/01/05 08:56:43;;;;;;;31.73;17.17;;;2.70;99.90;;;;;;5030289;28;20032;-54
2021/01/05 08:59:08;;;;;;;35.92;20.17;;;2.80;99.90;;;;;;5029912;28;20036;-56
2021/01/05 09:01:34;;;;;;;31.73;17.70;;;2.80;99.90;;;;;;5029607;28;20452;-58
2021/01/05 09:04:00;;;;;;;34.03;18.65;;;2.70;99.90;;;;;;5029034;28;20147;-55
2021/01/05 09:06:25;;;;;;;33.58;19.33;;;2.70;99.90;;;;;;5029863;28;20113;-56
2021/01/05 09:08:52;;;;;;;34.55;18.58;;;2.70;99.90;;;;;;5029806;28;20025;-55
2021/01/05 09:11:21;;;;;;;35.80;18.35;;;2.70;99.90;;;;;;5033381;28;20432;-54
2021/01/05 09:13:47;;;;;;;33.00;17.80;;;2.70;99.90;;;;;;5032628;28;20041;-54
2021/01/05 09:16:30;;;;;;;30.88;17.98;;;2.70;99.90;;;;;;5033350;28;20025;-60
2021/01/05 09:18:56;;;;;;;30.15;17.67;;;2.80;99.90;;;;;;5033736;28;20488;-56
2021/01/05 09:21:25;;;;;;;33.65;17.85;;;2.70;99.90;;;;;;5033216;28;20024;-55
2021/01/05 09:23:51;;;;;;;31.52;17.92;;;2.70;99.90;;;;;;5032227;28;20564;-54
2021/01/05 09:26:29;;;;;;;34.17;18.48;;;2.70;99.90;;;;;;5033098;28;20083;-58
2021/01/05 09:28:55;;;;;;;32.17;18.52;;;2.80;99.90;;;;;;5033299;28;20026;-59
2021/01/05 09:31:21;;;;;;;29.73;17.02;;;2.90;99.90;;;;;;5034542;28;20024;-58
2021/01/05 09:33:47;;;;;;;35.45;18.75;;;3.00;99.90;;;;;;5030016;28;20140;-58
2021/01/05 09:36:14;;;;;;;32.70;18.50;;;3.10;99.90;;;;;;5032874;28;20472;-58
2021/01/05 09:38:41;;;;;;;36.17;18.45;;;3.00;99.90;;;;;;5032934;28;20021;-53
2021/01/05 09:41:25;;;;;;;39.65;19.25;;;3.00;99.90;;;;;;5031548;28;20026;-56
2021/01/05 09:43:50;;;;;;;38.00;18.77;;;3.00;99.90;;;;;;5030879;28;20030;-56
2021/01/05 09:46:17;;;;;;;31.63;17.20;;;3.00;99.90;;;;;;5032688;28;20108;-55
2021/01/05 09:48:43;;;;;;;34.15;20.08;;;3.00;99.90;;;;;;5032418;28;20072;-57
2021/01/05 09:51:08;;;;;;;39.22;20.23;;;2.90;99.90;;;;;;5031015;28;20480;-55
2021/01/05 09:53:35;;;;;;;36.22;19.23;;;3.00;99.90;;;;;;5031776;28;20391;-57
2021/01/05 09:56:00;;;;;;;29.95;18.15;;;3.00;99.90;;;;;;5030928;28;20052;-57
2021/01/05 09:58:26;;;;;;;30.63;17.40;;;3.00;99.90;;;;;;5031199;28;20029;-56
2021/01/05 10:00:51;;;;;;;33.25;17.55;;;3.00;99.90;;;;;;5032606;28;20134;-54
2021/01/05 10:03:17;;;;;;;35.17;18.35;;;3.00;99.90;;;;;;5031558;28;20476;-51
2021/01/05 10:05:42;;;;;;;29.80;17.60;;;3.00;99.90;;;;;;5032081;28;20037;-53
2021/01/05 10:08:08;;;;;;;31.65;17.30;;;3.00;99.90;;;;;;5032477;28;20072;-58
2021/01/05 10:10:33;;;;;;;38.00;18.95;;;3.00;99.90;;;;;;5032055;28;20034;-58
2021/01/05 10:12:59;;;;;;;30.45;16.75;;;3.00;99.90;;;;;;5031218;28;20511;-55
2021/01/05 10:15:24;;;;;;;33.45;17.40;;;3.00;99.90;;;;;;5030766;28;20080;-59
2021/01/05 10:17:50;;;;;;;37.42;19.00;;;3.10;99.90;;;;;;5031905;28;20021;-57
2021/01/05 10:20:18;;;;;;;38.03;19.02;;;3.10;99.90;;;;;;5031727;28;20382;-61
2021/01/05 10:22:44;;;;;;;34.92;18.65;;;3.10;99.90;;;;;;5031468;28;20037;-55
2021/01/05 10:25:11;;;;;;;36.72;19.17;;;3.10;99.90;;;;;;5031894;28;20037;-58
2021/01/05 10:27:37;;;;;;;36.53;18.02;;;3.10;99.90;;;;;;5031667;28;20045;-57
2021/01/05 10:30:10;;;;;;;30.75;16.55;;;3.10;99.90;;;;;;5030556;28;20427;-59
2021/01/05 10:32:36;;;;;;;32.78;16.83;;;3.10;99.90;;;;;;5031049;28;20413;-56
2021/01/05 10:35:04;;;;;;;34.47;17.40;;;3.20;99.90;;;;;;5030450;28;20021;-54
2021/01/05 10:37:29;;;;;;;32.15;17.48;;;3.10;99.90;;;;;;5031521;28;20017;-58
2021/01/05 10:39:55;;;;;;;31.67;18.35;;;3.10;99.90;;;;;;5031665;28;20075;-58
2021/01/05 10:42:20;;;;;;;31.45;18.15;;;3.10;99.90;;;;;;5031915;28;20446;-55
2021/01/05 10:44:46;;;;;;;29.27;17.27;;;3.10;99.90;;;;;;5031200;28;20029;-58
2021/01/05 10:47:14;;;;;;;30.85;17.23;;;3.10;99.90;;;;;;5031719;28;20480;-52
2021/01/05 10:49:40;;;;;;;33.50;17.80;;;3.20;99.90;;;;;;5031256;28;20022;-56
2021/01/05 10:52:07;;;;;;;33.05;17.58;;;3.20;99.90;;;;;;5031099;28;20108;-56
2021/01/05 10:54:33;;;;;;;29.65;17.30;;;3.30;99.90;;;;;;5031247;28;20025;-56
2021/01/05 10:57:04;;;;;;;30.50;17.30;;;3.30;99.90;;;;;;5032191;28;20076;-54
2021/01/05 10:59:30;;;;;;;29.73;16.67;;;3.30;99.90;;;;;;5033011;28;20470;-51
2021/01/05 11:02:02;;;;;;;30.98;16.35;;;3.40;99.90;;;;;;5031306;28;20432;-51
2021/01/05 11:04:28;;;;;;;30.77;17.90;;;3.40;99.90;;;;;;5029216;28;20030;-53
2021/01/05 11:06:55;;;;;;;28.77;16.83;;;3.40;99.90;;;;;;5029976;28;20074;-53
2021/01/05 11:09:22;;;;;;;27.98;16.65;;;3.50;99.90;;;;;;5031291;28;20033;-55
2021/01/05 11:11:58;;;;;;;30.33;17.42;;;3.50;99.90;;;;;;5030875;28;20115;-53
2021/01/05 11:14:24;;;;;;;28.73;16.80;;;3.50;99.90;;;;;;5038155;28;20119;-54
2021/01/05 11:16:50;;;;;;;28.95;16.02;;;3.60;99.90;;;;;;5050775;28;20060;-59
2021/01/05 11:19:16;;;;;;;29.38;15.82;;;3.60;99.90;;;;;;5047219;28;20021;-59
2021/01/05 11:21:55;;;;;;;31.40;15.98;;;3.70;99.90;;;;;;5030520;28;20449;-58
2021/01/05 11:24:21;;;;;;;24.60;15.70;;;3.70;99.90;;;;;;5031163;28;20033;-60
2021/01/05 11:26:48;;;;;;;27.45;15.68;;;3.70;99.90;;;;;;5048620;28;20041;-54
2021/01/05 11:29:13;;;;;;;26.77;14.98;;;3.80;99.90;;;;;;5046979;28;20107;-52
2021/01/05 11:31:39;;;;;;;24.45;14.20;;;3.70;99.90;;;;;;5035666;28;20113;-55
2021/01/05 11:34:05;;;;;;;27.42;15.40;;;3.70;99.90;;;;;;5028304;28;20029;-57
2021/01/05 11:36:30;;;;;;;31.73;15.35;;;3.70;99.90;;;;;;5030931;28;20477;-53
2021/01/05 11:38:57;;;;;;;27.25;15.88;;;3.80;99.90;;;;;;5034910;28;20033;-53
2021/01/05 11:41:29;;;;;;;25.20;14.32;;;3.90;99.90;;;;;;5050720;28;20021;-59
2021/01/05 11:43:55;;;;;;;24.42;14.07;;;3.90;99.90;;;;;;5049027;28;20033;-58
2021/01/05 11:46:21;;;;;;;19.02;12.23;;;3.80;99.90;;;;;;5046995;28;20115;-59
2021/01/05 11:48:49;;;;;;;20.45;13.10;;;3.80;99.90;;;;;;5040071;28;20048;-55
2021/01/05 11:51:26;;;;;;;22.63;11.75;;;3.70;99.90;;;;;;5029132;28;20076;-57
2021/01/05 11:53:51;;;;;;;21.30;13.45;;;3.60;99.90;;;;;;5045961;28;20029;-56
2021/01/05 11:56:26;;;;;;;18.60;11.88;;;3.60;99.90;;;;;;5039055;28;20396;-57
2021/01/05 11:58:52;;;;;;;20.48;12.82;;;3.60;99.90;;;;;;5030955;28;20083;-55
2021/01/05 12:01:18;;;;;;;19.92;12.27;;;3.70;99.90;;;;;;5038180;28;20485;-54
2021/01/05 12:03:44;;;;;;;20.33;11.20;;;3.70;99.90;;;;;;5030890;28;20025;-52
2021/01/05 12:06:14;;;;;;;19.40;12.07;;;3.70;99.90;;;;;;5032016;28;20415;-57
2021/01/05 12:08:41;;;;;;;17.90;11.52;;;3.70;99.90;;;;;;5050187;28;20499;-56
2021/01/05 12:11:06;;;;;;;16.50;10.95;;;3.70;99.90;;;;;;5037290;28;20049;-56
2021/01/05 12:13:32;;;;;;;22.20;12.10;;;3.80;99.90;;;;;;5029709;28;20508;-57
2021/01/05 12:15:58;;;;;;;18.80;11.73;;;3.70;99.90;;;;;;5031460;28;20029;-58
2021/01/05 12:18:23;;;;;;;22.50;12.32;;;3.70;99.90;;;;;;5029687;28;20022;-56
2021/01/05 12:20:49;;;;;;;22.77;12.55;;;3.70;99.90;;;;;;5034332;28;20061;-56
2021/01/05 12:23:14;;;;;;;20.73;12.45;;;3.60;99.90;;;;;;5042738;28;20025;-53
2021/01/05 12:25:40;;;;;;;21.58;13.75;;;3.70;99.90;;;;;;5042089;28;20030;-57
2021/01/05 12:28:06;;;;;;;23.73;13.25;;;3.70;99.90;;;;;;5030428;28;20396;-60
2021/01/05 12:30:32;;;;;;;21.33;12.57;;;3.60;99.90;;;;;;5032283;28;20542;-58
2021/01/05 12:32:58;;;;;;;22.45;12.63;;;3.80;99.90;;;;;;5039288;28;20033;-57
2021/01/05 12:35:24;;;;;;;23.38;13.32;;;3.80;99.90;;;;;;5032946;28;20086;-52
2021/01/05 12:37:49;;;;;;;28.05;14.18;;;3.80;99.90;;;;;;5028191;28;20423;-57
2021/01/05 12:40:15;;;;;;;20.63;12.02;;;3.80;99.90;;;;;;5030291;28;20026;-46
2021/01/05 12:42:41;;;;;;;17.23;12.15;;;3.90;99.90;;;;;;5029468;28;20025;-57
2021/01/05 12:45:09;;;;;;;24.88;13.13;;;3.80;99.90;;;;;;5033517;28;20538;-56
2021/01/05 12:47:34;;;;;;;18.83;12.32;;;3.80;99.90;;;;;;5032903;28;20111;-58
2021/01/05 12:50:01;;;;;;;20.27;13.38;;;3.90;99.90;;;;;;5049663;28;20025;-61
2021/01/05 12:52:26;;;;;;;19.38;12.50;;;3.90;99.90;;;;;;5046459;28;20444;-53